Time;durP1;ratioP1;P1;durP2;ratioP2;P2;SDS_P1;SDS_P2;PMS_P1;PMS_P2;Temp;Humidity;BMP_temperature;BMP_pressure;BME280_temperature;BME280_humidity;BME280_pressure;Samples;Min_cycle;Max_cycle;Signal;HPM_P1;HPM_P2
2021/12/16 00:01:52;;;;;;;767.63;714.47;;;9.00;99.90;;;;;;5121800;28;20522;-82
2021/12/16 00:09:57;;;;;;;756.57;703.93;;;9.20;99.90;;;;;;5115462;28;20845;-83
2021/12/16 00:29:33;;;;;;;744.40;691.20;;;9.30;99.90;;;;;;5118756;27;20529;-82
2021/12/16 00:32:06;;;;;;;749.60;696.90;;;9.40;99.90;;;;;;5124273;27;20474;-82
2021/12/16 00:34:34;;;;;;;752.13;698.67;;;9.30;99.90;;;;;;5142110;27;20466;-82
2021/12/16 00:37:01;;;;;;;760.23;706.13;;;9.30;99.90;;;;;;5139583;27;20455;-84
2021/12/16 00:39:32;;;;;;;769.93;715.07;;;9.30;99.90;;;;;;5122485;28;20468;-82
2021/12/16 00:42:07;;;;;;;764.43;710.73;;;9.30;99.90;;;;;;5122255;27;20448;-82
2021/12/16 00:45:05;;;;;;;778.50;723.60;;;9.20;99.90;;;;;;5120521;28;20459;-82
2021/12/16 00:47:47;;;;;;;776.87;720.97;;;9.20;99.90;;;;;;5127487;27;21004;-82
2021/12/16 00:54:07;;;;;;;780.77;724.27;;;9.20;99.90;;;;;;5140036;27;20463;-82
2021/12/16 00:55:58;;;;;;;779.77;721.87;;;9.10;99.90;;;;;;5142640;27;20443;-82
2021/12/16 00:58:31;;;;;;;787.97;729.87;;;9.10;99.90;;;;;;5119891;28;20473;-82
2021/12/16 01:01:06;;;;;;;777.27;719.50;;;9.10;99.90;;;;;;5120101;28;20452;-82
2021/12/16 01:03:40;;;;;;;790.60;732.10;;;9.10;99.90;;;;;;5139279;27;20451;-82
2021/12/16 01:09:10;;;;;;;787.70;727.87;;;9.10;99.90;;;;;;5118076;28;20517;-84
2021/12/16 01:33:57;;;;;;;818.57;757.10;;;9.00;99.90;;;;;;5120957;27;20456;-84
2021/12/16 01:36:38;;;;;;;817.00;754.93;;;9.00;99.90;;;;;;5118537;28;20502;-82
2021/12/16 01:42:19;;;;;;;826.50;764.13;;;9.00;99.90;;;;;;5124350;27;20967;-82
2021/12/16 01:47:59;;;;;;;838.13;773.80;;;8.90;99.90;;;;;;5126596;27;20452;-82
2021/12/16 01:50:31;;;;;;;852.77;788.20;;;9.00;99.90;;;;;;5118368;28;20510;-82
2021/12/16 01:55:48;;;;;;;857.80;791.10;;;8.90;99.90;;;;;;5138662;27;20428;-82
2021/12/16 01:58:20;;;;;;;872.47;805.27;;;8.90;99.90;;;;;;5138267;27;20468;-82
2021/12/16 02:00:59;;;;;;;870.67;802.73;;;8.90;99.90;;;;;;5139360;27;20455;-82
2021/12/16 02:03:40;;;;;;;867.67;802.17;;;8.90;99.90;;;;;;5121306;27;20440;-82
2021/12/16 02:06:21;;;;;;;880.17;812.37;;;8.80;99.90;;;;;;5119241;28;20487;-82
2021/12/16 02:08:50;;;;;;;882.17;814.07;;;8.80;99.90;;;;;;5141502;27;20835;-83
2021/12/16 02:11:32;;;;;;;889.20;821.00;;;8.80;99.90;;;;;;5139772;27;20450;-82
2021/12/16 02:28:05;;;;;;;902.50;832.20;;;8.80;99.90;;;;;;5128896;27;20943;-82
2021/12/16 02:33:51;;;;;;;905.27;833.87;;;8.80;99.90;;;;;;5119039;27;20471;-82
2021/12/16 02:36:27;;;;;;;904.47;832.50;;;8.70;99.90;;;;;;5120725;27;20453;-82
2021/12/16 02:38:59;;;;;;;914.10;841.20;;;8.80;99.90;;;;;;5118432;28;21006;-82
2021/12/16 02:41:27;;;;;;;919.03;845.57;;;8.80;99.90;;;;;;5121331;27;20440;-82
2021/12/16 02:44:10;;;;;;;914.80;842.40;;;8.70;99.90;;;;;;5138458;27;20451;-82
2021/12/16 02:49:23;;;;;;;920.10;846.87;;;8.70;99.90;;;;;;5117977;28;20540;-82
2021/12/16 02:51:51;;;;;;;926.30;852.17;;;8.70;99.90;;;;;;5123611;27;20472;-82
2021/12/16 02:54:19;;;;;;;935.03;859.70;;;8.70;99.90;;;;;;5139320;27;20455;-84
2021/12/16 02:56:46;;;;;;;922.97;849.07;;;8.70;99.90;;;;;;5138135;27;20454;-82
2021/12/16 02:59:15;;;;;;;916.87;842.63;;;8.70;99.90;;;;;;5138720;27;20475;-82
2021/12/16 03:01:45;;;;;;;912.83;838.33;;;8.70;99.90;;;;;;5136887;27;20463;-82
2021/12/16 03:04:15;;;;;;;911.90;838.03;;;8.70;99.90;;;;;;5139176;27;20452;-82
2021/12/16 03:06:45;;;;;;;907.93;833.73;;;8.70;99.90;;;;;;5133326;27;20487;-82
2021/12/16 03:09:16;;;;;;;903.67;829.47;;;8.80;99.90;;;;;;5118449;28;20465;-82
2021/12/16 03:12:02;;;;;;;913.73;840.00;;;8.70;99.90;;;;;;5123594;27;20836;-82
2021/12/16 03:14:35;;;;;;;919.63;845.00;;;8.70;99.90;;;;;;5137544;27;20555;-83
2021/12/16 03:17:14;;;;;;;896.97;823.60;;;8.70;99.90;;;;;;5130016;27;20543;-82
2021/12/16 03:19:54;;;;;;;902.90;828.50;;;8.70;99.90;;;;;;5117263;28;20920;-83
2021/12/16 03:22:41;;;;;;;887.67;815.07;;;8.70;99.90;;;;;;5117356;27;20448;-83
2021/12/16 03:25:18;;;;;;;886.23;814.57;;;8.70;99.90;;;;;;5116269;28;20449;-81
2021/12/16 03:28:20;;;;;;;877.77;804.77;;;8.70;99.90;;;;;;5131244;27;20466;-82
2021/12/16 03:34:17;;;;;;;895.53;823.10;;;8.70;99.90;;;;;;5114033;27;20592;-82
2021/12/16 03:37:13;;;;;;;897.10;824.23;;;8.70;99.90;;;;;;5129422;27;20441;-81
2021/12/16 03:39:41;;;;;;;891.87;818.60;;;8.60;99.90;;;;;;5115571;28;20572;-83
2021/12/16 03:42:08;;;;;;;889.93;817.27;;;8.60;99.90;;;;;;5131434;27;20445;-84
2021/12/16 03:44:51;;;;;;;891.07;818.10;;;8.60;99.90;;;;;;5114615;28;20480;-84
2021/12/16 03:47:21;;;;;;;890.70;817.80;;;8.60;99.90;;;;;;5121303;28;20447;-83
2021/12/16 03:49:49;;;;;;;903.43;829.33;;;8.60;99.90;;;;;;5121032;27;21045;-82
2021/12/16 03:52:16;;;;;;;915.93;840.10;;;8.60;99.90;;;;;;5120912;27;20474;-82
2021/12/16 03:54:49;;;;;;;909.20;831.93;;;8.60;99.90;;;;;;5130547;28;20511;-83
2021/12/16 03:57:18;;;;;;;902.73;826.37;;;8.70;99.90;;;;;;5119208;28;20494;-83
2021/12/16 03:59:46;;;;;;;897.20;820.57;;;8.80;99.90;;;;;;5122967;28;20486;-83
2021/12/16 04:02:16;;;;;;;892.27;815.50;;;8.80;99.90;;;;;;5135780;27;20462;-82
2021/12/16 04:04:45;;;;;;;893.20;818.40;;;8.80;99.90;;;;;;5115930;28;20456;-83
2021/12/16 04:07:13;;;;;;;900.17;826.57;;;8.90;99.90;;;;;;5113009;28;20449;-84
2021/12/16 04:09:39;;;;;;;906.63;833.60;;;8.90;99.90;;;;;;5128811;28;20465;-83
2021/12/16 04:12:11;;;;;;;899.53;828.07;;;8.90;99.90;;;;;;5117440;28;20440;-83
2021/12/16 04:14:40;;;;;;;887.73;816.70;;;8.90;99.90;;;;;;5120878;27;20445;-83
2021/12/16 04:17:10;;;;;;;882.43;812.20;;;8.90;99.90;;;;;;5117290;28;20445;-83
2021/12/16 04:19:37;;;;;;;899.40;828.10;;;8.90;99.90;;;;;;5118712;28;20838;-83
2021/12/16 04:22:09;;;;;;;900.57;830.87;;;8.90;99.90;;;;;;5117811;28;20824;-83
2021/12/16 04:24:37;;;;;;;882.73;812.87;;;8.90;99.90;;;;;;5115326;28;20936;-84
2021/12/16 04:27:06;;;;;;;880.00;810.50;;;8.90;99.90;;;;;;5113310;28;20453;-82
2021/12/16 04:29:34;;;;;;;881.00;811.77;;;8.90;99.90;;;;;;5112422;28;20987;-84
2021/12/16 04:32:01;;;;;;;895.17;825.07;;;8.90;99.90;;;;;;5116012;28;20455;-83
2021/12/16 04:34:29;;;;;;;895.43;825.20;;;8.90;99.90;;;;;;5115243;28;20468;-83
2021/12/16 04:36:58;;;;;;;889.87;819.07;;;8.90;99.90;;;;;;5115147;28;20456;-83
2021/12/16 04:39:30;;;;;;;894.90;825.07;;;8.90;99.90;;;;;;5115696;28;20546;-83
2021/12/16 04:41:58;;;;;;;892.63;822.73;;;8.80;99.90;;;;;;5115748;28;20453;-83
2021/12/16 04:44:27;;;;;;;884.40;814.70;;;8.80;99.90;;;;;;5116009;28;20456;-83
2021/12/16 04:46:54;;;;;;;893.40;821.50;;;8.70;99.90;;;;;;5115368;28;20507;-83
2021/12/16 04:49:21;;;;;;;893.33;821.23;;;8.70;99.90;;;;;;5115623;28;20466;-83
2021/12/16 04:51:52;;;;;;;901.07;828.07;;;8.70;99.90;;;;;;5115169;28;20440;-83
2021/12/16 04:54:23;;;;;;;897.10;822.80;;;8.50;99.90;;;;;;5115680;28;20472;-81
2021/12/16 04:56:50;;;;;;;917.20;840.50;;;8.50;99.90;;;;;;5115438;28;20441;-83
2021/12/16 04:59:19;;;;;;;921.97;840.00;;;8.50;99.90;;;;;;5114230;28;20968;-82
2021/12/16 05:01:51;;;;;;;928.73;847.17;;;8.40;99.90;;;;;;5118140;28;20449;-83
2021/12/16 05:04:19;;;;;;;930.17;848.30;;;8.50;99.90;;;;;;5116082;28;20956;-83
2021/12/16 05:06:46;;;;;;;927.97;845.77;;;8.50;99.90;;;;;;5117664;28;20809;-83
2021/12/16 05:09:32;;;;;;;935.03;851.97;;;8.40;99.90;;;;;;5119320;28;20476;-83
2021/12/16 05:11:59;;;;;;;935.40;854.00;;;8.40;99.90;;;;;;5119729;28;20513;-83
2021/12/16 05:14:26;;;;;;;947.60;863.30;;;8.30;99.90;;;;;;5121841;28;20464;-83
2021/12/16 05:16:52;;;;;;;950.07;864.83;;;8.20;99.90;;;;;;5120812;28;20953;-84
2021/12/16 05:19:20;;;;;;;935.50;850.20;;;8.10;99.90;;;;;;5123182;28;20464;-83
2021/12/16 05:21:53;;;;;;;945.83;860.67;;;8.10;99.90;;;;;;5122170;28;20452;-85
2021/12/16 05:24:25;;;;;;;946.97;859.93;;;7.90;99.90;;;;;;5124871;28;20997;-82
2021/12/16 05:26:55;;;;;;;950.80;861.43;;;7.80;99.90;;;;;;5115670;28;20445;-81
2021/12/16 05:29:23;;;;;;;956.20;864.10;;;7.70;99.90;;;;;;5123315;28;20472;-82
2021/12/16 05:31:50;;;;;;;961.10;870.60;;;7.70;99.90;;;;;;5123150;28;20458;-83
2021/12/16 05:34:17;;;;;;;966.87;873.30;;;7.50;99.90;;;;;;5124599;28;20468;-82
2021/12/16 05:36:45;;;;;;;962.17;867.37;;;7.40;99.90;;;;;;5123804;28;20936;-83
2021/12/16 05:39:12;;;;;;;968.07;873.37;;;7.20;99.90;;;;;;5122213;28;20469;-82
2021/12/16 05:41:41;;;;;;;985.13;888.60;;;7.10;99.90;;;;;;5125394;28;20452;-82
2021/12/16 05:44:08;;;;;;;981.00;880.97;;;6.90;99.90;;;;;;5124735;28;20472;-83
2021/12/16 05:46:35;;;;;;;985.27;884.80;;;6.70;99.90;;;;;;5124585;28;20452;-83
2021/12/16 05:49:04;;;;;;;994.83;891.40;;;6.50;99.90;;;;;;5125087;28;20472;-82
2021/12/16 05:51:34;;;;;;;1004.20;898.20;;;6.40;99.90;;;;;;5125417;28;20449;-83
2021/12/16 05:54:03;;;;;;;1004.30;899.63;;;6.20;99.90;;;;;;5124112;28;20477;-83
2021/12/16 05:56:30;;;;;;;1015.33;911.30;;;6.20;99.90;;;;;;5123690;28;20522;-83
2021/12/16 05:58:58;;;;;;;1019.77;912.73;;;6.10;99.90;;;;;;5125209;28;20495;-84
2021/12/16 06:01:28;;;;;;;1015.53;908.73;;;6.00;99.90;;;;;;5123794;28;20992;-82
2021/12/16 06:03:55;;;;;;;1022.87;914.87;;;5.90;99.90;;;;;;5126585;27;20441;-82
2021/12/16 06:06:23;;;;;;;1028.80;916.80;;;5.80;99.90;;;;;;5122622;27;20449;-83
2021/12/16 06:08:51;;;;;;;1032.17;922.93;;;5.70;99.90;;;;;;5131951;27;20478;-82
2021/12/16 06:11:22;;;;;;;1028.73;918.63;;;5.70;99.90;;;;;;5133752;27;20949;-82
2021/12/16 06:14:02;;;;;;;1035.57;924.53;;;5.70;99.90;;;;;;5120473;28;20473;-82
2021/12/16 06:27:32;;;;;;;1047.07;933.00;;;5.40;99.90;;;;;;5138549;27;20972;-82
2021/12/16 06:29:59;;;;;;;1050.93;937.80;;;5.40;99.90;;;;;;5140672;27;20448;-82
2021/12/16 06:32:27;;;;;;;1051.03;936.83;;;5.40;99.90;;;;;;5133710;27;20456;-82
2021/12/16 06:34:55;;;;;;;1042.47;928.43;;;5.50;99.90;;;;;;5130533;27;20471;-82
2021/12/16 06:37:22;;;;;;;1042.63;930.63;;;5.50;99.90;;;;;;5131266;27;20964;-83
2021/12/16 06:39:49;;;;;;;1047.37;934.50;;;5.50;99.90;;;;;;5134893;27;20448;-83
2021/12/16 06:42:16;;;;;;;1054.37;938.17;;;5.60;99.90;;;;;;5140446;27;20444;-82
2021/12/16 06:44:47;;;;;;;1048.60;936.63;;;5.50;99.90;;;;;;5140588;27;20448;-82
2021/12/16 06:47:20;;;;;;;1053.70;940.20;;;5.50;99.90;;;;;;5122573;27;20453;-82
2021/12/16 06:49:52;;;;;;;1058.77;942.57;;;5.40;99.90;;;;;;5119500;28;20476;-82
2021/12/16 06:52:30;;;;;;;1071.40;949.23;;;5.20;99.90;;;;;;5137109;27;20812;-83
2021/12/16 06:55:11;;;;;;;1071.97;944.80;;;5.20;99.90;;;;;;5141090;27;20494;-82
2021/12/16 06:57:43;;;;;;;1057.77;943.03;;;5.30;99.90;;;;;;5119150;27;20456;-82
2021/12/16 07:00:17;;;;;;;1067.63;950.33;;;5.20;99.90;;;;;;5120466;28;20449;-83
2021/12/16 07:05:40;;;;;;;1063.60;947.50;;;5.00;99.90;;;;;;5133969;27;20444;-84
2021/12/16 07:08:12;;;;;;;1074.27;956.00;;;5.00;99.90;;;;;;5113328;28;20552;-84
2021/12/16 07:10:45;;;;;;;1113.90;955.50;;;4.90;99.90;;;;;;5113596;28;20445;-82
2021/12/16 07:13:18;;;;;;;1220.53;956.70;;;4.90;99.90;;;;;;5113970;28;20476;-82
2021/12/16 07:15:46;;;;;;;1353.77;969.13;;;5.10;99.90;;;;;;5112729;28;20501;-81
2021/12/16 07:18:13;;;;;;;1251.30;963.20;;;5.10;99.90;;;;;;5113849;28;20480;-83
2021/12/16 07:20:41;;;;;;;1311.63;958.00;;;5.10;99.90;;;;;;5113433;28;20455;-82
2021/12/16 07:23:09;;;;;;;1123.13;954.37;;;5.00;99.90;;;;;;5113953;28;20455;-83
2021/12/16 07:25:39;;;;;;;1069.67;954.70;;;5.00;99.90;;;;;;5112991;28;20457;-83
2021/12/16 07:28:08;;;;;;;1150.03;974.77;;;5.10;99.90;;;;;;5113535;28;20465;-82
2021/12/16 07:30:36;;;;;;;1241.93;970.20;;;4.90;99.90;;;;;;5113893;28;20456;-82
2021/12/16 07:33:04;;;;;;;1233.57;969.70;;;4.90;99.90;;;;;;5113171;28;20944;-82
2021/12/16 07:35:31;;;;;;;1173.90;976.13;;;5.20;99.90;;;;;;5113211;28;20451;-83
2021/12/16 07:38:02;;;;;;;1094.57;974.57;;;5.00;99.90;;;;;;5114295;28;20996;-83
2021/12/16 07:40:35;;;;;;;1102.23;969.33;;;5.10;99.90;;;;;;5113774;28;20483;-82
2021/12/16 07:43:29;;;;;;;1116.63;975.67;;;5.20;99.90;;;;;;5113855;28;20448;-81
2021/12/16 07:46:17;;;;;;;1075.23;958.20;;;5.10;99.90;;;;;;5113789;28;20544;-84
2021/12/16 07:48:57;;;;;;;1072.30;956.70;;;5.30;99.90;;;;;;5113580;28;20477;-84
2021/12/16 07:51:56;;;;;;;1099.77;960.80;;;5.30;99.90;;;;;;5113570;28;20467;-83
2021/12/16 07:57:49;;;;;;;1066.53;949.90;;;5.70;99.90;;;;;;5106609;28;20570;-83
2021/12/16 08:07:07;;;;;;;1071.60;955.37;;;5.60;99.90;;;;;;5101807;28;20440;-83
2021/12/16 08:13:35;;;;;;;1059.63;945.43;;;5.40;99.90;;;;;;5110749;28;20452;-81
2021/12/16 08:16:32;;;;;;;1057.70;942.90;;;5.50;99.90;;;;;;5113866;28;20445;-83
2021/12/16 08:19:29;;;;;;;1086.27;953.60;;;5.40;99.90;;;;;;5114108;28;21024;-83
2021/12/16 08:22:15;;;;;;;1087.03;945.90;;;5.50;99.90;;;;;;5114483;28;20448;-83
2021/12/16 08:25:10;;;;;;;1099.07;948.20;;;5.60;99.90;;;;;;5113192;28;20468;-83
2021/12/16 08:27:59;;;;;;;1089.97;950.60;;;5.80;99.90;;;;;;5113232;28;20452;-83
2021/12/16 08:30:53;;;;;;;1111.17;951.53;;;5.80;99.90;;;;;;5113723;28;20815;-83
2021/12/16 08:33:25;;;;;;;1108.50;959.57;;;5.90;99.90;;;;;;5112786;28;20974;-83
2021/12/16 08:35:57;;;;;;;1072.80;946.43;;;6.00;99.90;;;;;;5112689;28;20480;-83
2021/12/16 08:38:59;;;;;;;1138.13;941.20;;;5.90;99.90;;;;;;5113006;28;20836;-83
2021/12/16 08:41:53;;;;;;;1102.53;946.20;;;5.90;99.90;;;;;;5112576;28;20501;-82
2021/12/16 08:44:26;;;;;;;1138.63;950.00;;;5.80;99.90;;;;;;5113308;28;20592;-83
2021/12/16 08:49:59;;;;;;;1090.00;950.03;;;5.80;99.90;;;;;;5108921;28;20529;-83
2021/12/16 08:52:45;;;;;;;1113.63;954.97;;;5.80;99.90;;;;;;5117105;28;20464;-83
2021/12/16 08:55:32;;;;;;;1095.63;949.47;;;5.90;99.90;;;;;;5116630;28;20476;-83
2021/12/16 09:01:16;;;;;;;1111.53;960.97;;;6.00;99.90;;;;;;5114295;28;20997;-83
2021/12/16 09:07:02;;;;;;;1126.73;955.80;;;6.20;99.90;;;;;;5114665;27;20453;-83
2021/12/16 09:09:47;;;;;;;1166.70;948.23;;;6.20;99.90;;;;;;5116230;28;20464;-83
2021/12/16 09:15:52;;;;;;;1134.17;961.80;;;6.30;99.90;;;;;;5074088;28;20473;-83
2021/12/16 09:21:37;;;;;;;1112.90;967.57;;;6.40;99.90;;;;;;5115167;28;20461;-81
2021/12/16 09:24:36;;;;;;;1106.57;948.20;;;6.50;99.90;;;;;;5116045;28;20540;-82
2021/12/16 09:33:16;;;;;;;;;;;;;;;;;;;;;
2021/12/16 09:36:17;;;;;;;1100.17;951.70;;;6.90;99.90;;;;;;5136379;27;20486;-83
2021/12/16 09:39:01;;;;;;;1097.03;949.17;;;7.20;99.90;;;;;;5082328;27;20475;-83
2021/12/16 09:41:59;;;;;;;1103.47;944.53;;;7.10;99.90;;;;;;5135999;27;20959;-83
2021/12/16 09:44:53;;;;;;;1108.37;948.67;;;7.30;99.90;;;;;;5051660;28;20534;-81
2021/12/16 09:47:28;;;;;;;1095.50;951.47;;;7.40;99.90;;;;;;5137375;27;20469;-80
2021/12/16 09:49:57;;;;;;;1091.10;944.53;;;7.50;99.90;;;;;;5136412;27;20473;-83
2021/12/16 09:55:33;;;;;;;1101.37;967.10;;;7.60;99.90;;;;;;5135907;27;20464;-82
2021/12/16 09:58:04;;;;;;;1097.03;945.23;;;7.90;99.90;;;;;;5136051;27;20475;-82
2021/12/16 10:00:38;;;;;;;1082.97;938.30;;;8.00;99.90;;;;;;5136050;27;20816;-82
2021/12/16 10:03:06;;;;;;;1060.00;925.20;;;8.20;99.90;;;;;;5136038;27;20466;-85
2021/12/16 10:05:34;;;;;;;1051.90;935.70;;;8.30;99.90;;;;;;5135682;27;20444;-88
2021/12/16 10:08:05;;;;;;;1036.87;920.60;;;8.60;99.90;;;;;;5135710;27;20468;-85
2021/12/16 10:10:40;;;;;;;1030.60;917.23;;;8.70;99.90;;;;;;5135811;27;20506;-85
2021/12/16 10:19:04;;;;;;;940.90;846.60;;;9.30;99.90;;;;;;5135935;27;20252;-85
2021/12/16 10:21:43;;;;;;;929.63;836.80;;;9.60;99.90;;;;;;5135064;27;20440;-85
2021/12/16 10:24:24;;;;;;;944.37;845.97;;;9.50;99.90;;;;;;5135024;27;20522;-85
2021/12/16 10:27:09;;;;;;;899.27;809.47;;;9.70;99.90;;;;;;5135163;27;20462;-84
2021/12/16 10:29:56;;;;;;;898.03;809.93;;;9.80;99.90;;;;;;5134846;27;20472;-85
2021/12/16 10:32:41;;;;;;;896.67;809.67;;;9.90;99.90;;;;;;5134940;27;20447;-85
2021/12/16 10:35:13;;;;;;;868.63;781.93;;;9.90;99.90;;;;;;5133109;27;20999;-85
2021/12/16 10:37:46;;;;;;;845.90;763.70;;;10.00;99.90;;;;;;5134781;27;20436;-85
2021/12/16 10:40:33;;;;;;;831.57;753.27;;;10.10;99.90;;;;;;5134296;27;20523;-85
2021/12/16 10:46:27;;;;;;;794.53;722.90;;;10.30;99.90;;;;;;5131166;27;20448;-83
2021/12/16 10:49:17;;;;;;;822.87;747.77;;;10.20;99.90;;;;;;5134509;27;20463;-86
2021/12/16 10:52:54;;;;;;;;;;;;;;;;;;;;;
2021/12/16 11:05:23;;;;;;;759.37;701.07;;;10.70;99.90;;;;;;5043392;28;20513;-84
2021/12/16 11:07:56;;;;;;;766.47;710.37;;;10.70;99.90;;;;;;5134020;27;20562;-85
2021/12/16 11:10:25;;;;;;;746.53;695.13;;;11.00;99.90;;;;;;5134127;27;20448;-85
2021/12/16 11:12:54;;;;;;;732.50;682.27;;;10.90;99.90;;;;;;5134866;27;20932;-85
2021/12/16 11:15:28;;;;;;;517.63;487.53;;;11.10;99.90;;;;;;5133966;27;20471;-85
2021/12/16 11:18:02;;;;;;;433.70;408.77;;;11.00;99.90;;;;;;5134029;27;20472;-85
2021/12/16 11:20:35;;;;;;;490.40;461.67;;;10.90;99.90;;;;;;5133874;27;20581;-85
2021/12/16 11:23:06;;;;;;;439.53;413.13;;;11.00;99.90;;;;;;5134128;27;20216;-85
2021/12/16 11:25:35;;;;;;;461.00;432.17;;;10.90;99.90;;;;;;5133435;27;20471;-85
2021/12/16 11:28:21;;;;;;;423.40;397.17;;;10.80;99.90;;;;;;5134279;27;20476;-82
2021/12/16 11:30:53;;;;;;;453.00;426.43;;;10.90;99.90;;;;;;5134558;27;20499;-83
2021/12/16 11:33:27;;;;;;;447.67;421.10;;;10.70;99.90;;;;;;5136089;27;20444;-82
2021/12/16 11:36:01;;;;;;;489.03;459.43;;;10.60;99.90;;;;;;5135231;27;20571;-82
2021/12/16 11:38:33;;;;;;;538.80;506.53;;;10.60;99.90;;;;;;5134647;27;20971;-82
2021/12/16 11:41:10;;;;;;;497.90;466.20;;;10.70;99.90;;;;;;5138406;27;20444;-83
2021/12/16 11:43:46;;;;;;;531.67;499.63;;;10.60;99.90;;;;;;5138476;27;20940;-83
2021/12/16 11:46:18;;;;;;;475.37;447.03;;;10.60;99.90;;;;;;5136052;27;20462;-82
2021/12/16 11:48:46;;;;;;;469.13;441.37;;;10.70;99.90;;;;;;5137480;27;20988;-82
2021/12/16 11:51:16;;;;;;;466.97;439.37;;;10.60;99.90;;;;;;5137843;27;20456;-83
2021/12/16 11:53:47;;;;;;;444.37;417.03;;;10.40;99.90;;;;;;5137978;27;20948;-83
2021/12/16 11:56:14;;;;;;;466.10;439.07;;;10.40;99.90;;;;;;5136705;27;20479;-83
2021/12/16 11:58:45;;;;;;;480.00;451.93;;;10.20;99.90;;;;;;5137110;28;20960;-83
2021/12/16 12:01:30;;;;;;;488.47;458.17;;;10.10;99.90;;;;;;5135378;28;20447;-83
2021/12/16 12:04:04;;;;;;;480.97;453.30;;;10.20;99.90;;;;;;5136853;27;20443;-83
2021/12/16 12:06:32;;;;;;;477.93;450.07;;;10.30;99.90;;;;;;5135343;28;20447;-82
2021/12/16 12:09:02;;;;;;;444.90;418.70;;;10.40;99.90;;;;;;5135759;27;20463;-83
2021/12/16 12:11:30;;;;;;;449.50;421.57;;;10.50;99.90;;;;;;5135755;28;20473;-84
2021/12/16 12:14:00;;;;;;;469.57;442.37;;;10.40;99.90;;;;;;5134567;28;20451;-83
2021/12/16 12:16:33;;;;;;;486.13;456.90;;;10.30;99.90;;;;;;5134658;28;20997;-83
2021/12/16 12:19:08;;;;;;;502.90;472.43;;;10.30;99.90;;;;;;5135233;27;20558;-83
2021/12/16 12:21:39;;;;;;;507.77;477.67;;;10.30;99.90;;;;;;5139368;27;20446;-83
2021/12/16 12:24:11;;;;;;;490.93;460.00;;;10.20;99.90;;;;;;5139167;27;20456;-83
2021/12/16 12:26:41;;;;;;;489.10;458.00;;;10.20;99.90;;;;;;5138200;27;20455;-83
2021/12/16 12:29:11;;;;;;;467.93;439.37;;;10.30;99.90;;;;;;5138971;27;20899;-83
2021/12/16 12:31:42;;;;;;;491.23;460.30;;;10.20;99.90;;;;;;5138954;27;20448;-83
2021/12/16 12:34:10;;;;;;;505.90;472.50;;;10.10;99.90;;;;;;5139544;27;20847;-84
2021/12/16 12:36:39;;;;;;;521.27;486.93;;;10.20;99.90;;;;;;5138529;27;20471;-83
2021/12/16 12:39:08;;;;;;;510.07;476.17;;;10.10;99.90;;;;;;5138296;27;20930;-83
2021/12/16 12:41:35;;;;;;;514.83;480.57;;;10.20;99.90;;;;;;5139103;27;20444;-83
2021/12/16 12:44:04;;;;;;;513.37;480.07;;;10.20;99.90;;;;;;5142044;27;20456;-83
2021/12/16 12:46:33;;;;;;;503.73;470.77;;;10.40;99.90;;;;;;5138363;27;20454;-83
2021/12/16 12:49:02;;;;;;;491.87;460.57;;;10.50;99.90;;;;;;5138929;27;20471;-84
2021/12/16 12:51:37;;;;;;;427.23;399.90;;;10.80;99.90;;;;;;5137269;27;20456;-81
2021/12/16 12:54:16;;;;;;;374.77;349.80;;;11.10;99.90;;;;;;5138974;27;20837;-83
2021/12/16 12:56:43;;;;;;;294.13;275.33;;;11.10;99.90;;;;;;5117412;28;20476;-83
2021/12/16 12:59:12;;;;;;;242.47;225.23;;;11.20;99.90;;;;;;5117585;28;20475;-83
2021/12/16 13:01:42;;;;;;;239.57;221.77;;;11.30;99.90;;;;;;5118849;28;20820;-83
2021/12/16 13:04:13;;;;;;;250.30;230.90;;;11.40;99.90;;;;;;5118534;28;20448;-84
2021/12/16 13:06:55;;;;;;;233.73;216.20;;;11.30;99.90;;;;;;5118842;28;20830;-83
2021/12/16 13:09:35;;;;;;;276.57;257.23;;;11.30;99.90;;;;;;5121438;28;20468;-83
2021/12/16 13:12:20;;;;;;;260.57;240.57;;;11.10;99.90;;;;;;5119138;28;20452;-82
2021/12/16 13:14:51;;;;;;;263.50;243.17;;;11.20;99.90;;;;;;5117962;28;20479;-83
2021/12/16 13:23:22;;;;;;;265.63;245.27;;;11.20;99.90;;;;;;5116768;28;20972;-82
2021/12/16 13:23:34;;;;;;;284.30;265.53;;;11.00;99.90;;;;;;5118219;28;20490;-83
2021/12/16 13:29:01;;;;;;;276.13;257.70;;;11.10;99.90;;;;;;5116991;28;20460;-83
2021/12/16 13:31:36;;;;;;;257.70;240.57;;;11.10;99.90;;;;;;5115488;28;20453;-83
2021/12/16 13:34:03;;;;;;;256.53;238.80;;;11.20;99.90;;;;;;5115990;28;20463;-82
2021/12/16 13:36:42;;;;;;;281.10;262.30;;;11.10;99.90;;;;;;5126536;22;20495;-78
2021/12/16 13:39:22;;;;;;;298.73;278.43;;;11.10;99.90;;;;;;5035910;28;20448;-79
2021/12/16 13:42:05;;;;;;;300.73;280.53;;;10.90;99.90;;;;;;5035741;28;20452;-79
2021/12/16 13:44:40;;;;;;;305.83;286.40;;;11.00;99.90;;;;;;5035820;28;20467;-80
2021/12/16 13:47:17;;;;;;;305.27;286.77;;;10.90;99.90;;;;;;5035183;28;20482;-80
2021/12/16 14:01:58;;;;;;;316.70;297.40;;;11.30;99.90;;;;;;5035081;28;20447;-77
2021/12/16 14:07:40;;;;;;;336.07;314.07;;;11.20;99.90;;;;;;5019862;28;20471;-80
2021/12/16 14:10:15;;;;;;;343.83;321.33;;;11.10;99.90;;;;;;5036737;28;20701;-81
2021/12/16 14:15:59;;;;;;;328.63;306.23;;;11.10;99.90;;;;;;5036744;28;20472;-79
2021/12/16 14:24:10;;;;;;;414.57;385.57;;;10.70;99.90;;;;;;5037055;28;20546;-80
2021/12/16 14:26:48;;;;;;;436.87;404.07;;;10.60;99.90;;;;;;5035729;28;20476;-79
2021/12/16 14:35:00;;;;;;;516.53;478.50;;;10.30;99.90;;;;;;5036450;28;20487;-79
2021/12/16 14:37:34;;;;;;;594.33;545.50;;;10.30;99.90;;;;;;5034292;28;20456;-80
2021/12/16 14:40:23;;;;;;;555.63;513.63;;;10.20;99.90;;;;;;5035500;28;20197;-80
2021/12/16 14:43:14;;;;;;;561.57;519.07;;;10.20;99.90;;;;;;5034271;28;20479;-79
2021/12/16 14:45:45;;;;;;;566.00;522.27;;;10.10;99.90;;;;;;5034369;28;20455;-79
2021/12/16 14:48:31;;;;;;;563.40;518.33;;;10.10;99.90;;;;;;5035072;28;20480;-79
2021/12/16 14:51:00;;;;;;;567.10;521.90;;;10.10;99.90;;;;;;5035653;28;20830;-78
2021/12/16 14:53:31;;;;;;;590.90;542.40;;;10.10;99.90;;;;;;5035562;28;20456;-79
2021/12/16 14:56:02;;;;;;;600.13;552.17;;;10.00;99.90;;;;;;5034617;28;20478;-79
2021/12/16 14:58:31;;;;;;;610.17;562.23;;;9.90;99.90;;;;;;5035135;28;20460;-79
2021/12/16 15:01:07;;;;;;;621.03;572.27;;;9.90;99.90;;;;;;5035014;28;20483;-79
2021/12/16 15:03:39;;;;;;;630.20;579.70;;;9.80;99.90;;;;;;5035579;28;20452;-79
2021/12/16 15:06:08;;;;;;;643.73;592.40;;;9.80;99.90;;;;;;5034795;28;20852;-79
2021/12/16 15:08:42;;;;;;;654.03;601.70;;;9.80;99.90;;;;;;5035135;28;20463;-81
2021/12/16 15:11:12;;;;;;;659.77;606.27;;;9.80;99.90;;;;;;5034890;28;20456;-79
2021/12/16 15:13:46;;;;;;;684.37;630.57;;;9.70;99.90;;;;;;5035389;28;20464;-79
2021/12/16 15:16:35;;;;;;;697.57;642.57;;;9.60;99.90;;;;;;5034650;28;20479;-80
2021/12/16 15:36:18;;;;;;;823.47;757.07;;;9.30;99.90;;;;;;5034976;28;20479;-80
2021/12/16 15:38:59;;;;;;;821.67;753.63;;;9.20;99.90;;;;;;5034918;28;20535;-79
2021/12/16 15:44:12;;;;;;;854.87;785.00;;;9.20;99.90;;;;;;5034960;28;20443;-79
2021/12/16 15:46:40;;;;;;;854.60;784.37;;;9.10;99.90;;;;;;5034616;28;20465;-79
2021/12/16 15:49:08;;;;;;;851.97;784.07;;;9.10;99.90;;;;;;5034939;28;20448;-80
2021/12/16 15:51:35;;;;;;;847.00;778.07;;;9.10;99.90;;;;;;5034949;28;20448;-79
2021/12/16 15:54:04;;;;;;;857.97;786.60;;;9.00;99.90;;;;;;5033617;28;20444;-79
2021/12/16 15:56:34;;;;;;;876.43;803.77;;;9.00;99.90;;;;;;5033006;28;20488;-79
2021/12/16 15:59:04;;;;;;;888.60;815.00;;;9.00;99.90;;;;;;5033111;28;20937;-80
2021/12/16 16:01:33;;;;;;;899.87;824.37;;;9.00;99.90;;;;;;5033447;28;20452;-79
2021/12/16 16:04:06;;;;;;;902.20;828.70;;;9.00;99.90;;;;;;5035260;28;20460;-79
2021/12/16 16:06:33;;;;;;;911.63;834.73;;;9.00;99.90;;;;;;5032238;28;21021;-78
2021/12/16 16:09:06;;;;;;;914.33;836.27;;;8.90;99.90;;;;;;5033781;28;20452;-78
2021/12/16 16:11:35;;;;;;;908.53;835.70;;;8.90;99.90;;;;;;5033999;28;20455;-78
2021/12/16 16:14:05;;;;;;;920.70;843.20;;;8.90;99.90;;;;;;5033378;28;20487;-80
2021/12/16 16:16:39;;;;;;;935.27;856.97;;;8.90;99.90;;;;;;5033870;28;20488;-79
2021/12/16 16:19:09;;;;;;;964.33;879.53;;;8.90;99.90;;;;;;5033288;28;20578;-79
2021/12/16 16:21:38;;;;;;;969.03;882.50;;;8.90;99.90;;;;;;5033461;28;20456;-78